createdAt,value
2022-08-01T00:00:06.968Z,25.20
2022-08-01T00:02:37.174Z,25.10
2022-08-01T00:05:06.728Z,25.10
2022-08-01T00:07:35.198Z,25.10
2022-08-01T00:10:03.782Z,25.00
2022-08-01T00:12:30.600Z,25.00
2022-08-01T00:14:57.364Z,25.00
2022-08-01T00:17:24.094Z,25.00
2022-08-01T00:19:50.847Z,25.00
2022-08-01T00:22:18.194Z,24.90
2022-08-01T00:24:44.889Z,24.90
2022-08-01T00:27:11.583Z,24.90
2022-08-01T00:30:12.761Z,24.90
2022-08-01T00:32:25.355Z,24.80
2022-08-01T00:34:52.467Z,24.80
2022-08-01T00:37:19.380Z,24.80
2022-08-01T00:39:46.139Z,24.80
2022-08-01T00:42:13.770Z,24.70
2022-08-01T00:44:40.985Z,24.70
2022-08-01T00:47:08.684Z,24.70
2022-08-01T00:49:35.750Z,24.60
2022-08-01T00:52:05.713Z,24.60
2022-08-01T00:54:33.397Z,24.60
2022-08-01T00:57:00.282Z,24.60
2022-08-01T00:59:27.962Z,24.60
2022-08-01T01:01:55.384Z,24.60
2022-08-01T01:04:23.503Z,24.60
2022-08-01T01:06:50.135Z,24.60
2022-08-01T01:09:41.941Z,24.50
2022-08-01T01:12:17.887Z,24.60
2022-08-01T01:14:56.314Z,24.50
2022-08-01T01:17:49.905Z,24.50
2022-08-01T01:20:21.695Z,24.40
2022-08-01T01:22:57.468Z,24.40
2022-08-01T01:25:38.545Z,24.40
2022-08-01T01:28:33.382Z,24.40
2022-08-01T01:31:03.461Z,24.30
2022-08-01T01:33:34.165Z,24.30
2022-08-01T01:36:07.584Z,24.30
2022-08-01T01:38:45.125Z,24.20
2022-08-01T01:41:15.052Z,24.20
2022-08-01T01:43:42.293Z,24.20
2022-08-01T01:46:11.683Z,24.20
2022-08-01T01:48:40.987Z,24.10
2022-08-01T01:51:08.751Z,24.10
2022-08-01T01:53:36.771Z,24.00
2022-08-01T01:56:04.703Z,24.00
2022-08-01T01:58:34.432Z,24.00
2022-08-01T02:01:03.729Z,23.90
2022-08-01T02:03:32.527Z,23.90
2022-08-01T02:06:01.699Z,23.90
2022-08-01T02:08:31.839Z,23.80
2022-08-01T02:11:19.195Z,23.80
2022-08-01T02:13:52.013Z,23.80
2022-08-01T02:16:19.816Z,23.80
2022-08-01T02:18:46.733Z,23.70
2022-08-01T02:21:20.878Z,23.70
2022-08-01T02:23:49.182Z,23.70
2022-08-01T02:26:18.879Z,23.70
2022-08-01T02:29:00.260Z,23.70
2022-08-01T02:31:29.257Z,23.70
2022-08-01T02:34:03.187Z,23.60
2022-08-01T02:36:33.595Z,23.60
2022-08-01T02:39:04.396Z,23.60
2022-08-01T02:41:32.814Z,23.60
2022-08-01T02:44:02.929Z,23.50
2022-08-01T02:46:47.228Z,23.50
2022-08-01T02:49:15.859Z,23.50
2022-08-01T02:51:44.558Z,23.50
2022-08-01T02:54:12.928Z,23.50
2022-08-01T02:56:42.067Z,23.50
2022-08-01T02:59:13.769Z,23.50
2022-08-01T03:01:43.592Z,23.40
2022-08-01T03:04:11.174Z,23.40
2022-08-01T03:06:39.161Z,23.40
2022-08-01T03:09:08.779Z,23.30
2022-08-01T03:11:38.119Z,23.30
2022-08-01T03:14:09.916Z,23.30
2022-08-01T03:16:39.470Z,23.30
2022-08-01T03:19:08.109Z,23.30
2022-08-01T03:21:36.692Z,23.20
2022-08-01T03:24:06.320Z,23.20
2022-08-01T03:26:36.200Z,23.10
2022-08-01T03:29:11.504Z,23.10
2022-08-01T03:31:43.685Z,23.10
2022-08-01T03:34:10.856Z,23.10
2022-08-01T03:37:03.593Z,23.00
2022-08-01T03:39:35.688Z,23.00
2022-08-01T03:42:11.389Z,23.00
2022-08-01T03:44:42.929Z,23.00
2022-08-01T03:47:11.603Z,23.00
2022-08-01T03:49:43.935Z,23.00
2022-08-01T03:52:11.748Z,22.90
2022-08-01T03:54:43.063Z,23.00
2022-08-01T03:57:35.673Z,22.90
2022-08-01T03:59:59.440Z,22.90
2022-08-01T04:02:29.945Z,22.90
2022-08-01T04:04:57.146Z,22.80
2022-08-01T04:07:29.326Z,22.70
2022-08-01T04:09:56.198Z,22.70
2022-08-01T04:12:23.445Z,22.70
2022-08-01T04:14:50.453Z,22.60
2022-08-01T04:17:17.780Z,22.60
2022-08-01T04:19:44.891Z,22.60
2022-08-01T04:22:13.974Z,22.60
2022-08-01T04:24:54.634Z,22.60
2022-08-01T04:27:49.176Z,22.50
2022-08-01T04:30:21.205Z,22.50
2022-08-01T04:32:48.875Z,22.50
2022-08-01T04:35:23.588Z,22.50
2022-08-01T04:38:06.262Z,22.50
2022-08-01T04:40:36.761Z,22.40
2022-08-01T04:43:04.230Z,22.40
2022-08-01T04:45:33.617Z,22.40
2022-08-01T04:48:01.088Z,22.40
2022-08-01T04:50:28.246Z,22.40
2022-08-01T04:52:55.501Z,22.40
2022-08-01T04:55:22.299Z,22.50
2022-08-01T04:57:49.242Z,22.50
2022-08-01T05:00:19.959Z,22.50
2022-08-01T05:02:48.012Z,22.50
2022-08-01T05:05:15.782Z,22.50
2022-08-01T05:07:44.147Z,22.50
2022-08-01T05:10:12.242Z,22.50
2022-08-01T05:12:39.030Z,22.60
2022-08-01T05:15:11.705Z,22.60
2022-08-01T05:17:43.256Z,22.60
2022-08-01T05:20:11.234Z,22.60
2022-08-01T05:22:38.236Z,22.70
2022-08-01T05:25:06.368Z,22.70
2022-08-01T05:27:33.914Z,22.70
2022-08-01T05:30:00.612Z,22.70
2022-08-01T05:32:28.158Z,22.80
2022-08-01T05:34:54.831Z,22.80
2022-08-01T05:37:21.590Z,22.90
2022-08-01T05:39:48.210Z,22.90
2022-08-01T05:42:15.105Z,23.00
2022-08-01T05:44:42.054Z,23.10
2022-08-01T05:47:08.846Z,23.10
2022-08-01T05:49:35.622Z,23.20
2022-08-01T05:52:03.216Z,23.30
2022-08-01T05:54:30.531Z,23.40
2022-08-01T05:57:00.499Z,23.40
2022-08-01T05:59:27.475Z,23.40
2022-08-01T06:01:54.326Z,23.50
2022-08-01T06:04:21.201Z,23.50
2022-08-01T06:06:48.380Z,23.60
2022-08-01T06:09:15.106Z,23.70
2022-08-01T06:11:41.942Z,23.70
2022-08-01T06:14:08.653Z,23.80
2022-08-01T06:16:35.377Z,23.80
2022-08-01T06:19:02.118Z,23.90
2022-08-01T06:21:28.905Z,23.90
2022-08-01T06:23:55.597Z,23.90
2022-08-01T06:26:22.315Z,24.00
2022-08-01T06:28:49.103Z,24.00
2022-08-01T06:31:16.557Z,24.10
2022-08-01T06:33:43.225Z,24.20
2022-08-01T06:36:10.389Z,24.20
2022-08-01T06:38:37.217Z,24.30
2022-08-01T06:41:04.395Z,24.30
2022-08-01T06:43:31.562Z,24.40
2022-08-01T06:45:58.353Z,24.50
2022-08-01T06:48:25.184Z,24.60
2022-08-01T06:51:08.551Z,24.70
2022-08-01T06:53:39.029Z,24.80
2022-08-01T06:56:07.180Z,24.90
2022-08-01T06:58:35.370Z,25.00
2022-08-01T07:01:06.993Z,25.10
2022-08-01T07:03:53.452Z,25.20
2022-08-01T07:06:21.672Z,25.30
2022-08-01T07:08:48.473Z,25.40
2022-08-01T07:11:15.137Z,25.40
2022-08-01T07:13:45.470Z,25.40
2022-08-01T07:16:13.552Z,25.40
2022-08-01T07:18:40.461Z,25.30
2022-08-01T07:21:07.137Z,25.30
2022-08-01T07:23:46.001Z,25.30
2022-08-01T07:26:14.132Z,25.30
2022-08-01T07:28:43.956Z,25.30
2022-08-01T07:31:11.033Z,25.30
2022-08-01T07:33:48.570Z,25.20
2022-08-01T07:36:17.094Z,25.20
2022-08-01T07:38:44.239Z,25.20
2022-08-01T07:41:11.039Z,25.20
2022-08-01T07:43:37.865Z,25.10
2022-08-01T07:46:05.306Z,25.10
2022-08-01T07:48:32.154Z,25.00
2022-08-01T07:50:58.966Z,25.00
2022-08-01T07:53:25.726Z,25.00
2022-08-01T07:55:52.673Z,25.00
2022-08-01T07:58:22.532Z,25.00
2022-08-01T08:00:49.224Z,25.00
2022-08-01T08:03:15.878Z,25.00
2022-08-01T08:05:57.639Z,25.00
2022-08-01T08:08:25.898Z,25.00
2022-08-01T08:10:52.690Z,25.00
2022-08-01T08:13:19.547Z,25.00
2022-08-01T08:15:48.363Z,25.00
2022-08-01T08:18:15.594Z,25.00
2022-08-01T08:20:42.269Z,25.10
2022-08-01T08:23:42.782Z,25.20
2022-08-01T08:26:11.841Z,25.30
2022-08-01T08:28:40.640Z,25.50
2022-08-01T08:31:24.526Z,25.70
2022-08-01T08:33:52.771Z,25.80
2022-08-01T08:36:19.423Z,26.00
2022-08-01T08:38:46.146Z,26.20
2022-08-01T08:41:17.950Z,26.30
2022-08-01T08:43:47.434Z,26.40
2022-08-01T08:46:15.697Z,26.50
2022-08-01T08:48:42.934Z,26.50
2022-08-01T08:51:12.272Z,26.50
2022-08-01T08:53:44.729Z,26.60
2022-08-01T08:56:15.471Z,26.60
2022-08-01T08:58:45.904Z,26.80
2022-08-01T09:01:13.555Z,26.90
2022-08-01T09:03:41.634Z,27.00
2022-08-01T09:06:08.678Z,27.00
2022-08-01T09:08:36.311Z,26.90
2022-08-01T09:11:03.667Z,26.90
2022-08-01T09:13:30.776Z,26.80
2022-08-01T09:15:59.863Z,26.70
2022-08-01T09:18:36.682Z,26.60
2022-08-01T09:21:22.022Z,26.60
2022-08-01T09:23:55.087Z,26.50
2022-08-01T09:26:34.148Z,26.50
2022-08-01T09:29:05.944Z,26.40
2022-08-01T09:31:47.431Z,26.40
2022-08-01T09:34:15.479Z,26.60
2022-08-01T09:36:54.367Z,26.80
2022-08-01T09:39:26.472Z,26.90
2022-08-01T09:41:56.465Z,27.00
2022-08-01T09:44:42.610Z,27.00
2022-08-01T09:47:11.695Z,27.10
2022-08-01T09:49:50.529Z,27.10
2022-08-01T09:52:20.925Z,27.20
2022-08-01T09:55:02.006Z,27.20
2022-08-01T09:57:30.259Z,27.20
2022-08-01T10:00:02.319Z,27.20
2022-08-01T10:02:32.117Z,27.10
2022-08-01T10:05:03.762Z,27.20
2022-08-01T10:07:44.982Z,27.10
2022-08-01T10:10:16.140Z,27.10
2022-08-01T10:12:45.711Z,27.20
2022-08-01T10:15:18.242Z,27.30
2022-08-01T10:17:54.462Z,27.30
2022-08-01T10:20:30.648Z,27.30
2022-08-01T10:23:02.888Z,27.30
2022-08-01T10:25:43.801Z,27.40
2022-08-01T10:28:17.955Z,27.60
2022-08-01T10:30:49.431Z,27.90
2022-08-01T10:33:20.032Z,28.10
2022-08-01T10:36:08.345Z,28.20
2022-08-01T10:38:37.168Z,28.30
2022-08-01T10:41:06.546Z,28.30
2022-08-01T10:43:36.227Z,28.40
2022-08-01T10:46:05.124Z,28.40
2022-08-01T10:48:35.695Z,28.50
2022-08-01T10:51:05.097Z,28.50
2022-08-01T10:53:54.234Z,28.50
2022-08-01T10:56:27.116Z,28.50
2022-08-01T10:59:06.181Z,28.50
2022-08-01T11:01:38.377Z,28.50
2022-08-01T11:04:16.009Z,28.50
2022-08-01T11:07:05.703Z,28.50
2022-08-01T11:09:40.063Z,28.50
2022-08-01T11:12:13.303Z,28.50
2022-08-01T11:14:59.480Z,28.50
2022-08-01T11:17:49.017Z,28.50
2022-08-01T11:20:21.841Z,28.50
2022-08-01T11:23:03.447Z,28.50
2022-08-01T11:26:03.172Z,28.40
2022-08-01T11:28:35.751Z,28.40
2022-08-01T11:31:11.132Z,28.40
2022-08-01T11:33:48.446Z,28.30
2022-08-01T11:36:16.834Z,28.30
2022-08-01T11:38:45.055Z,28.30
2022-08-01T11:41:12.730Z,28.30
2022-08-01T11:44:18.772Z,28.30
2022-08-01T11:46:56.851Z,28.30
2022-08-01T11:49:39.304Z,28.40
2022-08-01T11:52:26.089Z,28.40
2022-08-01T11:55:01.920Z,28.50
2022-08-01T11:57:36.069Z,28.50
2022-08-01T12:00:18.776Z,28.50
2022-08-01T12:02:47.964Z,28.60
2022-08-01T12:05:19.009Z,28.60
2022-08-01T12:07:47.225Z,28.70
2022-08-01T12:10:16.736Z,28.70
2022-08-01T12:12:51.834Z,28.70
2022-08-01T12:15:20.669Z,28.80
2022-08-01T12:17:58.344Z,28.80
2022-08-01T12:20:32.340Z,28.90
2022-08-01T12:23:01.710Z,28.90
2022-08-01T12:25:29.013Z,29.00
2022-08-01T12:27:57.043Z,28.90
2022-08-01T12:30:28.001Z,28.90
2022-08-01T12:32:55.822Z,28.80
2022-08-01T12:35:26.449Z,28.80
2022-08-01T12:37:58.017Z,28.70
2022-08-01T12:40:29.880Z,28.60
2022-08-01T12:42:59.697Z,28.60
2022-08-01T12:45:32.213Z,28.50
2022-08-01T12:48:00.600Z,28.50
2022-08-01T12:50:32.528Z,28.40
2022-08-01T12:53:01.782Z,28.30
2022-08-01T12:55:34.641Z,28.30
2022-08-01T12:58:15.897Z,28.20
2022-08-01T13:00:45.341Z,28.20
2022-08-01T13:03:18.184Z,28.20
2022-08-01T13:05:51.200Z,28.20
2022-08-01T13:08:30.024Z,28.30
2022-08-01T13:11:08.540Z,28.30
2022-08-01T13:13:49.548Z,28.40
2022-08-01T13:16:30.469Z,28.30
2022-08-01T13:19:06.665Z,28.30
2022-08-01T13:21:34.422Z,28.30
2022-08-01T13:24:26.644Z,28.30
2022-08-01T13:26:58.486Z,28.30
2022-08-01T13:29:34.773Z,28.30
2022-08-01T13:32:29.062Z,28.30
2022-08-01T13:35:08.854Z,28.30
2022-08-01T13:37:37.200Z,28.30
2022-08-01T13:40:06.940Z,28.30
2022-08-01T13:42:34.253Z,28.30
2022-08-01T13:45:04.147Z,28.20
2022-08-01T13:47:40.923Z,28.20
2022-08-01T13:50:27.565Z,28.20
2022-08-01T13:52:54.372Z,28.20
2022-08-01T13:55:21.102Z,28.20
2022-08-01T13:57:47.803Z,28.30
2022-08-01T14:00:14.981Z,28.30
2022-08-01T14:02:41.764Z,28.30
2022-08-01T14:05:08.669Z,28.40
2022-08-01T14:07:35.759Z,28.40
2022-08-01T14:10:18.304Z,28.40
2022-08-01T14:12:47.805Z,28.50
2022-08-01T14:15:14.718Z,28.50
2022-08-01T14:17:53.252Z,28.50
2022-08-01T14:20:20.844Z,28.50
2022-08-01T14:22:48.134Z,28.50
2022-08-01T14:25:59.149Z,28.50
2022-08-01T14:28:01.573Z,28.50
2022-08-01T14:30:32.890Z,28.50
2022-08-01T14:32:59.837Z,28.50
2022-08-01T14:35:27.201Z,28.50
2022-08-01T14:37:54.472Z,28.50
2022-08-01T14:40:24.583Z,28.40
2022-08-01T14:42:51.311Z,28.40
2022-08-01T14:45:17.978Z,28.40
2022-08-01T14:47:44.742Z,28.40
2022-08-01T14:50:14.432Z,28.40
2022-08-01T14:52:42.101Z,28.40
2022-08-01T14:55:10.670Z,28.30
2022-08-01T14:57:39.495Z,28.30
2022-08-01T15:00:09.320Z,28.20
2022-08-01T15:02:36.036Z,28.20
2022-08-01T15:05:02.786Z,28.10
2022-08-01T15:07:30.007Z,28.10
2022-08-01T15:09:57.166Z,28.00
2022-08-01T15:12:23.874Z,28.00
2022-08-01T15:14:51.258Z,28.00
2022-08-01T15:17:23.755Z,27.90
2022-08-01T15:19:54.433Z,28.00
2022-08-01T15:22:22.542Z,28.00
2022-08-01T15:24:54.046Z,28.00
2022-08-01T15:27:24.093Z,27.90
2022-08-01T15:29:51.345Z,27.90
2022-08-01T15:32:17.979Z,27.90
2022-08-01T15:34:45.142Z,27.90
2022-08-01T15:37:12.516Z,27.90
2022-08-01T15:39:40.085Z,27.90
2022-08-01T15:42:13.154Z,27.90
2022-08-01T15:44:46.546Z,28.00
2022-08-01T15:47:13.319Z,28.00
2022-08-01T15:49:40.633Z,28.00
2022-08-01T15:52:21.212Z,28.00
2022-08-01T15:54:49.527Z,28.00
2022-08-01T15:57:16.323Z,28.00
2022-08-01T15:59:43.238Z,28.00
2022-08-01T16:02:10.521Z,28.00
2022-08-01T16:04:38.738Z,27.90
2022-08-01T16:07:06.312Z,27.90
2022-08-01T16:09:33.050Z,27.90
2022-08-01T16:11:59.881Z,27.90
2022-08-01T16:14:26.560Z,27.90
2022-08-01T16:16:55.851Z,27.80
2022-08-01T16:19:23.856Z,27.80
2022-08-01T16:21:51.678Z,27.80
2022-08-01T16:24:18.655Z,27.70
2022-08-01T16:26:45.321Z,27.70
2022-08-01T16:29:12.041Z,27.70
2022-08-01T16:31:43.788Z,27.70
2022-08-01T16:34:25.420Z,27.60
2022-08-01T16:36:53.301Z,27.60
2022-08-01T16:39:23.341Z,27.50
2022-08-01T16:41:55.352Z,27.50
2022-08-01T16:44:28.631Z,27.50
2022-08-01T16:47:01.215Z,27.40
2022-08-01T16:49:28.065Z,27.40
2022-08-01T16:51:54.756Z,27.40
2022-08-01T16:54:24.834Z,27.30
2022-08-01T16:56:52.555Z,27.30
2022-08-01T16:59:19.231Z,27.30
2022-08-01T17:01:57.810Z,27.30
2022-08-01T17:04:28.666Z,27.30
2022-08-01T17:06:55.498Z,27.30
2022-08-01T17:09:22.641Z,27.40
2022-08-01T17:11:49.494Z,27.40
2022-08-01T17:14:16.377Z,27.40
2022-08-01T17:16:43.289Z,27.50
2022-08-01T17:19:10.101Z,27.40
2022-08-01T17:21:46.892Z,27.40
2022-08-01T17:24:15.725Z,27.40
2022-08-01T17:26:43.523Z,27.50
2022-08-01T17:29:10.213Z,27.50
2022-08-01T17:31:36.878Z,27.40
2022-08-01T17:34:03.613Z,27.50
2022-08-01T17:36:30.288Z,27.50
2022-08-01T17:38:59.074Z,27.50
2022-08-01T17:41:25.985Z,27.40
2022-08-01T17:43:52.965Z,27.40
2022-08-01T17:46:20.089Z,27.40
2022-08-01T17:48:46.880Z,27.40
2022-08-01T17:51:13.649Z,27.30
2022-08-01T17:53:56.692Z,27.30
2022-08-01T17:56:27.760Z,27.20
2022-08-01T17:58:55.007Z,27.20
2022-08-01T18:01:26.681Z,27.20
2022-08-01T18:03:53.998Z,27.20
2022-08-01T18:06:23.421Z,27.20
2022-08-01T18:08:55.201Z,27.10
2022-08-01T18:11:24.729Z,27.10
2022-08-01T18:13:55.230Z,27.00
2022-08-01T18:16:22.016Z,27.00
2022-08-01T18:18:48.917Z,27.00
2022-08-01T18:21:15.583Z,27.00
2022-08-01T18:23:51.022Z,27.00
2022-08-01T18:26:18.721Z,26.90
2022-08-01T18:28:46.466Z,26.90
2022-08-01T18:31:16.412Z,26.90
2022-08-01T18:33:43.249Z,26.80
2022-08-01T18:36:15.351Z,26.80
2022-08-01T18:38:57.359Z,26.80
2022-08-01T18:41:24.504Z,26.70
2022-08-01T18:43:52.326Z,26.70
2022-08-01T18:46:30.801Z,26.60
2022-08-01T18:48:58.100Z,26.60
2022-08-01T18:51:26.403Z,26.50
2022-08-01T18:53:55.698Z,26.50
2022-08-01T18:56:22.478Z,26.50
2022-08-01T18:58:49.143Z,26.40
2022-08-01T19:01:16.070Z,26.40
2022-08-01T19:03:43.013Z,26.30
2022-08-01T19:06:10.039Z,26.40
2022-08-01T19:08:37.974Z,26.30
2022-08-01T19:11:05.436Z,26.30
2022-08-01T19:13:32.649Z,26.30
2022-08-01T19:16:00.391Z,26.20
2022-08-01T19:18:28.344Z,26.20
2022-08-01T19:20:55.196Z,26.10
2022-08-01T19:23:40.872Z,26.10
2022-08-01T19:26:12.554Z,26.00
2022-08-01T19:28:46.134Z,26.00
2022-08-01T19:31:14.433Z,26.00
2022-08-01T19:33:42.414Z,25.90
2022-08-01T19:36:18.256Z,25.90
2022-08-01T19:38:45.922Z,25.90
2022-08-01T19:41:16.238Z,25.80
2022-08-01T19:43:46.557Z,25.80
2022-08-01T19:46:17.162Z,25.70
2022-08-01T19:48:49.882Z,25.70
2022-08-01T19:51:20.961Z,25.70
2022-08-01T19:53:50.669Z,25.60
2022-08-01T19:56:25.702Z,25.60
2022-08-01T19:58:59.916Z,25.50
2022-08-01T20:01:27.784Z,25.50
2022-08-01T20:03:55.936Z,25.40
2022-08-01T20:06:24.439Z,25.40
2022-08-01T20:08:52.242Z,25.30
2022-08-01T20:11:21.978Z,25.30
2022-08-01T20:13:50.055Z,25.30
2022-08-01T20:16:17.682Z,25.20
2022-08-01T20:18:44.991Z,25.20
2022-08-01T20:21:12.958Z,25.10
2022-08-01T20:23:41.679Z,25.10
2022-08-01T20:26:09.628Z,25.10
2022-08-01T20:28:39.832Z,25.00
2022-08-01T20:31:08.388Z,25.00
2022-08-01T20:33:41.146Z,25.00
2022-08-01T20:36:12.130Z,25.00
2022-08-01T20:38:54.717Z,24.90
2022-08-01T20:41:26.492Z,24.90
2022-08-01T20:43:55.106Z,24.90
2022-08-01T20:46:26.631Z,24.80
2022-08-01T20:48:58.389Z,24.80
2022-08-01T20:51:27.186Z,24.80
2022-08-01T20:53:54.963Z,24.80
2022-08-01T20:56:38.550Z,24.70
2022-08-01T20:59:39.806Z,24.70
2022-08-01T21:02:51.347Z,24.70
2022-08-01T21:05:31.418Z,24.60
2022-08-01T21:08:04.176Z,24.60
2022-08-01T21:10:33.414Z,24.60
2022-08-01T21:13:11.263Z,24.60
2022-08-01T21:15:59.909Z,24.60
2022-08-01T21:19:10.047Z,24.60
2022-08-01T21:21:40.494Z,24.60
2022-08-01T21:24:15.369Z,24.50
2022-08-01T21:26:43.337Z,24.50
2022-08-01T21:29:10.889Z,24.50
2022-08-01T21:31:40.867Z,24.50
2022-08-01T21:34:09.488Z,24.50
2022-08-01T21:36:36.876Z,24.40
2022-08-01T21:39:06.217Z,24.40
2022-08-01T21:41:56.449Z,24.40
2022-08-01T21:44:28.847Z,24.40
2022-08-01T21:46:59.189Z,24.30
2022-08-01T21:49:26.517Z,24.40
2022-08-01T21:52:11.638Z,24.30
2022-08-01T21:55:11.038Z,24.30
2022-08-01T21:57:48.574Z,24.30
2022-08-01T22:00:25.799Z,24.30
2022-08-01T22:03:25.555Z,24.30
2022-08-01T22:05:55.007Z,24.30
2022-08-01T22:08:35.800Z,24.30
2022-08-01T22:11:07.772Z,24.20
2022-08-01T22:13:35.663Z,24.20
2022-08-01T22:16:04.770Z,24.20
2022-08-01T22:18:32.983Z,24.20
2022-08-01T22:21:01.915Z,24.20
2022-08-01T22:23:28.845Z,24.10
2022-08-01T22:25:55.917Z,24.10
2022-08-01T22:28:23.198Z,24.10
2022-08-01T22:30:51.488Z,24.10
2022-08-01T22:33:18.782Z,24.10
2022-08-01T22:35:47.580Z,24.00
2022-08-01T22:38:16.387Z,24.00
2022-08-01T22:40:50.928Z,23.90
2022-08-01T22:43:46.597Z,23.90
2022-08-01T22:46:45.645Z,23.90
2022-08-01T22:49:35.110Z,23.80
2022-08-01T22:52:12.549Z,23.80
2022-08-01T22:54:41.493Z,23.80
2022-08-01T22:57:15.827Z,23.70
2022-08-01T22:59:55.972Z,23.70
2022-08-01T23:02:22.905Z,23.60
2022-08-01T23:04:52.932Z,23.60
2022-08-01T23:07:28.307Z,23.60
2022-08-01T23:09:57.046Z,23.50
2022-08-01T23:12:25.919Z,23.50
2022-08-01T23:14:54.953Z,23.50
2022-08-01T23:17:27.060Z,23.50
2022-08-01T23:20:00.597Z,23.50
2022-08-01T23:22:32.112Z,23.40
2022-08-01T23:25:05.076Z,23.40
2022-08-01T23:28:04.641Z,23.40
2022-08-01T23:30:27.899Z,23.30
2022-08-01T23:32:55.347Z,23.30
2022-08-01T23:35:22.586Z,23.30
2022-08-01T23:37:51.008Z,23.20
2022-08-01T23:40:18.819Z,23.20
2022-08-01T23:42:45.628Z,23.20
2022-08-01T23:45:12.510Z,23.10
2022-08-01T23:47:39.317Z,23.10
2022-08-01T23:50:07.726Z,23.10
2022-08-01T23:52:38.857Z,23.10
2022-08-01T23:55:15.778Z,23.00
2022-08-01T23:57:43.000Z,23.00
